Time;durP1;ratioP1;P1;durP2;ratioP2;P2;SDS_P1;SDS_P2;PMS_P1;PMS_P2;Temp;Humidity;BMP_temperature;BMP_pressure;BME280_temperature;BME280_humidity;BME280_pressure;Samples;Min_cycle;Max_cycle;Signal;HPM_P1;HPM_P2
2023/01/27 00:00:34;;;;;;;16.00;8.40;;;;;;;-0.18;92.64;96236.97;5080320;28;20216;-83
2023/01/27 00:03:01;;;;;;;15.23;8.50;;;;;;;-0.27;92.24;96222.03;5088599;28;20202;-83
2023/01/27 00:05:30;;;;;;;14.10;8.13;;;;;;;-0.24;92.49;96236.78;5083589;28;20196;-83
2023/01/27 00:07:58;;;;;;;14.07;7.47;;;;;;;-0.26;92.53;96228.16;5086949;28;20205;-83
2023/01/27 00:10:25;;;;;;;15.67;8.53;;;;;;;-0.27;93.22;96224.69;5086592;28;20195;-83
2023/01/27 00:15:37;;;;;;;12.87;7.10;;;;;;;-0.28;93.21;96220.38;5090225;28;20223;-83
2023/01/27 00:18:04;;;;;;;15.40;8.23;;;;;;;-0.22;93.39;96230.31;5077977;28;20223;-83
2023/01/27 00:26:06;;;;;;;17.13;7.93;;;;;;;-0.29;92.31;96228.50;5047193;28;20210;-83
2023/01/27 00:28:34;;;;;;;18.77;9.10;;;;;;;-0.29;93.29;96237.28;5088425;28;20201;-83
2023/01/27 00:31:01;;;;;;;13.80;8.17;;;;;;;-0.30;93.34;96237.44;5090784;28;20197;-84
2023/01/27 00:33:28;;;;;;;17.77;9.20;;;;;;;-0.27;93.07;96232.66;5088901;28;20194;-84
2023/01/27 00:36:01;;;;;;;16.33;8.63;;;;;;;-0.31;92.75;96236.59;5086428;28;20198;-83
2023/01/27 00:38:31;;;;;;;16.57;8.87;;;;;;;-0.34;92.24;96231.63;5084792;28;20201;-83
2023/01/27 00:41:19;;;;;;;16.40;8.40;;;;;;;-0.33;92.40;96238.59;5077945;28;20220;-83
2023/01/27 00:43:47;;;;;;;16.33;7.87;;;;;;;-0.35;91.20;96235.28;5077356;28;20206;-83
2023/01/27 00:46:14;;;;;;;14.97;8.10;;;;;;;-0.39;91.46;96228.66;5088368;28;20215;-83
2023/01/27 00:48:41;;;;;;;14.40;8.20;;;;;;;-0.52;91.25;96212.41;5085762;28;20254;-83
2023/01/27 00:51:09;;;;;;;15.97;8.30;;;;;;;-0.50;92.21;96210.41;5081929;28;20411;-83
2023/01/27 00:53:37;;;;;;;15.83;8.50;;;;;;;-0.54;93.15;96209.09;5084181;28;20205;-83
2023/01/27 00:56:05;;;;;;;17.07;8.93;;;;;;;-0.57;92.70;96204.09;5085896;28;20204;-83
2023/01/27 00:58:32;;;;;;;14.17;7.77;;;;;;;-0.51;94.31;96220.19;5074737;28;20312;-83
2023/01/27 01:01:02;;;;;;;14.50;7.60;;;;;;;-0.50;94.55;96211.22;5087249;28;20196;-83
2023/01/27 01:03:31;;;;;;;13.20;7.83;;;;;;;-0.50;95.36;96203.28;5086871;28;20223;-83
2023/01/27 01:05:58;;;;;;;16.87;7.50;;;;;;;-0.41;94.67;96215.53;5083818;28;20202;-83
2023/01/27 01:08:29;;;;;;;14.00;7.93;;;;;;;-0.33;93.69;96225.31;5086082;28;20240;-83
2023/01/27 01:10:57;;;;;;;13.33;7.83;;;;;;;-0.43;92.33;96222.03;5079758;28;20202;-83
2023/01/27 01:13:24;;;;;;;13.43;7.63;;;;;;;-0.54;89.50;96209.09;5086126;28;20200;-83
2023/01/27 01:15:51;;;;;;;11.70;7.07;;;;;;;-0.48;89.61;96225.16;5085885;28;20225;-83
2023/01/27 01:18:18;;;;;;;12.17;7.43;;;;;;;-0.51;89.00;96219.38;5088662;28;20218;-83
2023/01/27 01:20:46;;;;;;;13.03;7.77;;;;;;;-0.46;88.82;96225.84;5078405;28;20227;-83
2023/01/27 01:23:16;;;;;;;13.50;7.57;;;;;;;-0.56;88.21;96214.56;5083109;28;20221;-83
2023/01/27 01:25:53;;;;;;;12.57;6.97;;;;;;;-0.61;87.84;96208.09;5076933;28;20205;-83
2023/01/27 01:28:21;;;;;;;15.40;8.77;;;;;;;-0.61;88.47;96208.09;5090030;28;20191;-83
2023/01/27 01:30:48;;;;;;;10.97;6.50;;;;;;;-0.65;88.70;96222.66;5086726;28;20209;-83
2023/01/27 01:33:15;;;;;;;13.57;7.17;;;;;;;-0.63;88.33;96210.06;5087988;28;20224;-83
2023/01/27 01:35:42;;;;;;;10.53;6.57;;;;;;;-0.73;87.97;96206.75;5085741;28;20283;-83
2023/01/27 01:38:10;;;;;;;14.07;7.17;;;;;;;-0.72;88.93;96208.41;5085104;28;20263;-83
2023/01/27 01:40:41;;;;;;;12.83;7.27;;;;;;;-0.67;89.04;96214.03;5086315;28;20208;-82
2023/01/27 01:43:14;;;;;;;12.10;6.93;;;;;;;-0.72;88.95;96211.06;5086013;28;20250;-83
2023/01/27 01:45:49;;;;;;;11.77;7.13;;;;;;;-0.67;88.83;96214.88;5086931;28;20262;-82
2023/01/27 01:48:23;;;;;;;12.23;6.53;;;;;;;-0.72;88.64;96205.75;5076137;28;21212;-82
2023/01/27 01:50:54;;;;;;;10.83;7.03;;;;;;;-0.73;88.09;96196.13;5080974;28;20200;-82
2023/01/27 01:53:28;;;;;;;13.20;7.00;;;;;;;-0.75;87.92;96196.31;5084404;28;20249;-82
2023/01/27 01:55:59;;;;;;;10.80;6.73;;;;;;;-0.84;87.84;96186.69;5080183;28;20196;-82
2023/01/27 01:58:29;;;;;;;12.40;7.07;;;;;;;-0.77;88.05;96204.41;5086051;28;20289;-82
2023/01/27 02:00:58;;;;;;;17.33;8.37;;;;;;;-0.86;88.43;96184.22;5083252;28;20201;-82
2023/01/27 02:03:28;;;;;;;12.90;7.33;;;;;;;-0.78;88.14;96202.78;5088647;28;20200;-82
2023/01/27 02:05:56;;;;;;;12.23;6.70;;;;;;;-0.80;88.48;96198.63;5096325;28;20284;-82
2023/01/27 02:08:28;;;;;;;12.30;7.13;;;;;;;-0.78;87.54;96196.66;5085607;28;20296;-82
2023/01/27 02:10:56;;;;;;;12.20;6.93;;;;;;;-0.85;88.13;96191.16;5086013;28;20212;-82
2023/01/27 02:13:23;;;;;;;15.03;6.63;;;;;;;-0.83;87.64;96189.16;5079256;28;20212;-82
2023/01/27 02:15:54;;;;;;;12.47;6.90;;;;;;;-0.80;87.76;96193.31;5083799;28;20224;-82
2023/01/27 02:18:22;;;;;;;16.03;7.53;;;;;;;-0.82;87.39;96184.69;5086556;28;20197;-82
2023/01/27 02:20:51;;;;;;;11.93;7.50;;;;;;;-0.73;87.62;96202.28;5088825;28;20232;-82
2023/01/27 02:23:32;;;;;;;13.33;6.97;;;;;;;-0.77;88.01;96199.09;5088818;28;20296;-82
2023/01/27 02:26:05;;;;;;;12.00;7.13;;;;;;;-0.77;87.82;96201.75;5100704;28;20216;-82
2023/01/27 02:28:33;;;;;;;14.37;7.90;;;;;;;-0.81;87.66;96197.78;5088218;28;20201;-82
2023/01/27 02:31:00;;;;;;;13.47;7.57;;;;;;;-0.86;87.63;96192.16;5092936;28;20201;-82
2023/01/27 02:33:28;;;;;;;14.60;7.80;;;;;;;-0.78;88.36;96194.81;5088933;28;20246;-82
2023/01/27 02:36:01;;;;;;;13.10;7.50;;;;;;;-0.79;88.63;96189.69;5086254;28;20209;-82
2023/01/27 02:38:34;;;;;;;13.40;7.00;;;;;;;-0.79;88.27;96187.03;5087787;28;20711;-82
2023/01/27 02:41:07;;;;;;;15.27;7.73;;;;;;;-0.85;88.84;96185.84;5088329;28;20293;-82
2023/01/27 02:43:34;;;;;;;13.60;7.73;;;;;;;-0.87;88.74;96171.94;5088218;28;20207;-82
2023/01/27 02:46:01;;;;;;;12.97;7.27;;;;;;;-0.80;88.25;96186.19;5091263;28;20268;-82
2023/01/27 02:48:29;;;;;;;14.07;7.50;;;;;;;-0.90;88.51;96172.28;5086589;28;20204;-81
2023/01/27 02:50:58;;;;;;;13.27;7.50;;;;;;;-0.81;88.01;96181.88;5086407;28;20229;-82
2023/01/27 02:53:26;;;;;;;15.27;7.93;;;;;;;-0.81;89.16;96181.88;5086987;28;20225;-81
2023/01/27 02:55:55;;;;;;;13.40;7.53;;;;;;;-0.85;88.74;96169.16;5085885;28;20205;-82
2023/01/27 02:58:23;;;;;;;12.30;7.20;;;;;;;-0.82;87.88;96182.03;5091050;28;20211;-82
2023/01/27 03:00:53;;;;;;;12.27;7.03;;;;;;;-0.88;88.21;96180.88;5084441;28;20243;-81
2023/01/27 03:03:21;;;;;;;12.30;7.43;;;;;;;-0.89;88.45;96179.22;5087219;28;20220;-82
2023/01/27 03:05:49;;;;;;;12.97;7.60;;;;;;;-0.82;87.94;96190.81;5085631;28;20201;-82
2023/01/27 03:08:17;;;;;;;12.43;7.27;;;;;;;-0.92;87.65;96161.00;5087713;28;20239;-82
2023/01/27 03:10:44;;;;;;;29.20;13.40;;;;;;;-0.80;87.86;96178.25;5089609;28;20197;-82
2023/01/27 03:13:11;;;;;;;12.10;6.80;;;;;;;-0.77;87.92;96175.25;5089949;28;20219;-82
2023/01/27 03:18:25;;;;;;;13.77;7.37;;;;;;;-0.76;87.47;96163.66;5090224;28;20196;-82
2023/01/27 03:21:01;;;;;;;12.80;7.30;;;;;;;-0.75;87.91;96164.50;5086640;28;20259;-82
2023/01/27 03:23:28;;;;;;;12.70;6.97;;;;;;;-0.74;87.13;96155.53;5088893;28;20302;-82
2023/01/27 03:25:55;;;;;;;14.27;7.67;;;;;;;-0.78;87.74;96163.00;5089579;28;20205;-82
2023/01/27 03:28:23;;;;;;;12.43;7.40;;;;;;;-0.76;87.51;96161.00;5085223;28;20279;-82
2023/01/27 03:31:07;;;;;;;12.30;6.87;;;;;;;-0.79;87.34;96161.34;5084034;28;20280;-81
2023/01/27 03:33:46;;;;;;;13.10;7.80;;;;;;;-0.80;86.20;96159.69;5081482;28;20216;-82
2023/01/27 03:47:26;;;;;;;12.50;7.00;;;;;;;-0.74;86.23;96144.09;5085361;28;20301;-84
2023/01/27 03:49:53;;;;;;;11.80;6.63;;;;;;;-0.82;85.81;96143.13;5088565;28;20192;-84
2023/01/27 03:52:20;;;;;;;13.73;7.10;;;;;;;-0.81;85.91;96155.38;5087171;28;20213;-82
2023/01/27 03:54:47;;;;;;;11.23;6.83;;;;;;;-0.82;86.88;96142.28;5087023;28;20201;-82
2023/01/27 03:57:14;;;;;;;12.47;6.93;;;;;;;-0.83;86.56;96146.75;5085476;28;20227;-82
2023/01/27 03:59:42;;;;;;;11.90;6.67;;;;;;;-0.78;86.13;96147.09;5086825;28;20208;-82
2023/01/27 04:07:39;;;;;;;11.67;7.00;;;;;;;-0.78;86.49;96136.50;5089653;28;20212;-81
2023/01/27 04:10:07;;;;;;;15.23;8.30;;;;;;;-0.78;86.33;96139.16;5089736;28;20192;-82
2023/01/27 04:12:33;;;;;;;15.43;7.50;;;;;;;-0.78;86.22;96140.97;5082505;28;20280;-82
2023/01/27 04:15:00;;;;;;;12.17;7.50;;;;;;;-0.80;85.65;96133.19;5083783;28;20355;-82
2023/01/27 04:17:27;;;;;;;13.40;7.63;;;;;;;-0.81;85.88;96136.81;5086162;28;20267;-81
2023/01/27 04:19:56;;;;;;;11.03;7.07;;;;;;;-0.81;86.16;96131.53;5087281;28;20218;-82
2023/01/27 04:22:23;;;;;;;12.00;7.20;;;;;;;-0.77;84.90;96140.78;5088458;28;20271;-81
2023/01/27 04:24:50;;;;;;;13.57;7.27;;;;;;;-0.79;85.61;96139.31;5087070;28;20223;-82
2023/01/27 04:27:17;;;;;;;13.23;7.63;;;;;;;-0.80;84.83;96141.13;5082222;28;20280;-81
2023/01/27 04:29:44;;;;;;;15.07;7.23;;;;;;;-0.80;85.49;96138.50;5082474;28;20193;-82
2023/01/27 04:32:13;;;;;;;19.73;7.10;;;;;;;-0.85;85.09;96140.78;5086036;28;20240;-84
2023/01/27 04:34:41;;;;;;;13.23;7.50;;;;;;;-0.80;84.63;96141.13;5088602;28;20200;-82
2023/01/27 04:37:10;;;;;;;11.47;6.50;;;;;;;-0.77;84.50;96124.88;5088160;28;20208;-81
2023/01/27 04:39:37;;;;;;;11.77;7.17;;;;;;;-0.80;85.32;96129.69;5088296;28;20201;-81
2023/01/27 04:42:07;;;;;;;14.87;7.73;;;;;;;-0.85;84.24;96118.78;5087879;28;20213;-81
2023/01/27 04:44:34;;;;;;;12.90;7.67;;;;;;;-0.79;85.32;96132.19;5083950;28;20208;-82
2023/01/27 04:47:01;;;;;;;14.07;7.97;;;;;;;-0.79;84.83;96134.84;5083509;28;20204;-82
2023/01/27 04:49:28;;;;;;;14.67;7.43;;;;;;;-0.87;85.34;96123.41;5087797;28;20223;-82
2023/01/27 04:51:55;;;;;;;13.17;7.47;;;;;;;-0.89;84.86;96136.81;5087611;28;20196;-82
2023/01/27 04:54:24;;;;;;;13.40;7.53;;;;;;;-0.98;84.50;96124.56;5080346;28;20233;-82
2023/01/27 04:56:57;;;;;;;14.07;7.33;;;;;;;-0.99;85.37;96119.41;5077703;28;20212;-81
2023/01/27 04:59:24;;;;;;;13.50;7.77;;;;;;;-0.94;85.03;96125.91;5089150;28;20220;-81
2023/01/27 05:01:51;;;;;;;11.77;7.40;;;;;;;-0.90;84.48;96135.16;5089251;28;20207;-81
2023/01/27 05:04:18;;;;;;;12.60;7.33;;;;;;;-1.00;84.84;96121.22;5085224;28;20200;-81
2023/01/27 05:06:45;;;;;;;13.00;7.53;;;;;;;-0.94;84.06;96130.38;5087547;28;20276;-81
2023/01/27 05:09:12;;;;;;;14.33;8.10;;;;;;;-0.89;84.17;96142.13;5085016;28;20224;-81
2023/01/27 05:11:41;;;;;;;16.90;8.13;;;;;;;-0.89;84.91;96147.44;5084406;28;20200;-82
2023/01/27 05:14:08;;;;;;;19.20;8.20;;;;;;;-0.91;84.93;96143.28;5086841;28;20217;-81
2023/01/27 05:16:35;;;;;;;13.50;8.00;;;;;;;-0.80;84.89;96161.50;5087389;28;20220;-82
2023/01/27 05:19:02;;;;;;;15.67;8.20;;;;;;;-0.85;84.14;96143.44;5085133;28;20260;-82
2023/01/27 05:21:29;;;;;;;11.27;7.37;;;;;;;-0.89;84.54;96136.00;5081496;28;20268;-81
2023/01/27 05:23:57;;;;;;;14.83;8.33;;;;;;;-0.82;85.44;96153.72;5083395;28;20208;-81
2023/01/27 05:26:25;;;;;;;13.73;7.53;;;;;;;-0.79;85.52;96149.91;5081542;28;20219;-82
2023/01/27 05:28:56;;;;;;;17.20;8.60;;;;;;;-0.73;85.21;96156.38;5079946;28;20196;-81
2023/01/27 05:31:27;;;;;;;16.57;7.77;;;;;;;-0.72;85.02;96155.38;5085182;28;20299;-82
2023/01/27 05:33:56;;;;;;;13.47;7.83;;;;;;;-0.73;85.05;96151.91;5085674;28;20224;-82
2023/01/27 05:36:24;;;;;;;14.73;7.77;;;;;;;-0.73;85.46;96153.72;5086400;28;20205;-81
2023/01/27 05:38:52;;;;;;;14.70;8.23;;;;;;;-0.85;86.43;96135.47;5081921;28;20201;-82
2023/01/27 05:41:20;;;;;;;15.43;8.70;;;;;;;-0.89;86.67;96131.53;5085603;28;20215;-81
2023/01/27 05:43:51;;;;;;;16.23;8.47;;;;;;;-0.83;87.89;96135.31;5082093;28;20193;-84
2023/01/27 05:46:21;;;;;;;14.87;7.40;;;;;;;-0.74;87.79;96133.50;5088520;28;20220;-84
2023/01/27 05:48:50;;;;;;;15.13;8.10;;;;;;;-0.81;87.40;96134.16;5086231;28;20258;-81
2023/01/27 05:51:19;;;;;;;14.73;7.83;;;;;;;-0.67;86.92;96153.06;5087120;28;20216;-81
2023/01/27 05:53:46;;;;;;;14.83;8.40;;;;;;;-0.78;87.79;96136.50;5084331;28;20224;-81
2023/01/27 05:56:16;;;;;;;14.20;8.10;;;;;;;-0.91;86.67;96119.41;5088359;28;20211;-81
2023/01/27 05:58:43;;;;;;;14.53;7.10;;;;;;;-0.92;86.07;96134.50;5081828;28;20251;-80
2023/01/27 06:01:13;;;;;;;15.20;7.63;;;;;;;-0.88;86.06;96143.78;5087161;28;20215;-81
2023/01/27 06:03:42;;;;;;;15.07;8.07;;;;;;;-1.00;84.76;96139.78;5091048;28;20200;-81
2023/01/27 06:06:11;;;;;;;11.43;6.40;;;;;;;-0.92;83.68;96162.81;5088665;28;20205;-81
2023/01/27 06:08:38;;;;;;;13.30;6.70;;;;;;;-0.96;84.73;96154.38;5089511;28;20292;-81
2023/01/27 06:11:09;;;;;;;11.87;7.20;;;;;;;-0.83;84.25;96173.25;5091045;28;20190;-81
2023/01/27 06:13:37;;;;;;;13.00;6.70;;;;;;;-0.86;84.48;96168.31;5089429;28;20213;-81
2023/01/27 06:16:08;;;;;;;12.10;6.93;;;;;;;-0.94;84.26;96170.94;5088641;28;20300;-81
2023/01/27 06:18:36;;;;;;;14.50;7.07;;;;;;;-0.85;85.20;96185.84;5089930;28;20227;-81
2023/01/27 06:21:06;;;;;;;16.53;7.03;;;;;;;-0.80;84.92;96198.63;5085597;28;20233;-81
2023/01/27 06:23:34;;;;;;;17.10;8.37;;;;;;;-0.76;85.33;96200.78;5086589;28;20218;-81
2023/01/27 06:26:03;;;;;;;14.70;8.27;;;;;;;-0.71;85.59;96199.47;5085629;28;20211;-81
2023/01/27 06:28:30;;;;;;;14.67;7.70;;;;;;;-0.68;85.62;96201.81;5085974;28;20201;-81
2023/01/27 06:31:05;;;;;;;13.57;7.57;;;;;;;-0.69;84.65;96200.97;5088783;28;20209;-81
2023/01/27 06:33:32;;;;;;;14.90;8.37;;;;;;;-0.68;85.21;96201.81;5088412;28;20238;-81
2023/01/27 06:36:02;;;;;;;24.03;13.03;;;;;;;-0.66;85.29;96199.78;5091688;28;20197;-81
2023/01/27 06:38:30;;;;;;;15.00;7.93;;;;;;;-0.77;85.36;96193.00;5088259;28;20210;-81
2023/01/27 06:40:57;;;;;;;12.10;7.40;;;;;;;-0.72;85.54;96192.50;5091781;28;20204;-81
2023/01/27 06:43:24;;;;;;;11.40;6.93;;;;;;;-0.72;85.15;96205.75;5085761;28;20201;-81
2023/01/27 06:45:52;;;;;;;12.53;7.23;;;;;;;-0.79;85.15;96201.13;5087646;28;20234;-81
2023/01/27 06:48:20;;;;;;;14.60;7.87;;;;;;;-0.82;84.89;96200.59;5080764;28;20218;-81
2023/01/27 06:50:46;;;;;;;16.23;8.27;;;;;;;-0.89;86.13;96199.59;5081357;28;20257;-81
2023/01/27 06:53:13;;;;;;;12.23;7.43;;;;;;;-0.94;86.35;96192.16;5090952;28;20243;-81
2023/01/27 06:55:42;;;;;;;14.40;7.30;;;;;;;-1.01;86.41;96187.63;5079330;28;20224;-81
2023/01/27 06:58:10;;;;;;;13.13;7.17;;;;;;;-1.04;86.29;96188.81;5095356;28;20226;-81
2023/01/27 07:00:38;;;;;;;20.10;10.83;;;;;;;-1.04;85.49;96191.47;5078175;28;20204;-81
2023/01/27 07:03:07;;;;;;;13.23;7.77;;;;;;;-1.06;85.48;96187.31;5088378;28;20205;-81
2023/01/27 07:05:34;;;;;;;13.07;7.00;;;;;;;-1.06;85.49;96209.34;5079234;28;20202;-81
2023/01/27 07:08:01;;;;;;;14.57;7.83;;;;;;;-0.99;85.02;96210.34;5105730;28;20197;-81
2023/01/27 07:10:28;;;;;;;13.07;7.43;;;;;;;-0.98;84.74;96195.28;5078439;28;20201;-81
2023/01/27 07:13:08;;;;;;;15.27;7.53;;;;;;;-0.96;85.76;96186.19;5080059;28;20204;-81
2023/01/27 07:15:36;;;;;;;13.13;6.93;;;;;;;-0.94;85.16;96192.16;5083787;28;20221;-84
2023/01/27 07:18:03;;;;;;;13.07;6.70;;;;;;;-0.92;85.35;96194.63;5091052;28;20219;-81
2023/01/27 07:20:33;;;;;;;14.77;7.23;;;;;;;-0.91;85.39;96183.84;5086396;28;20227;-81
2023/01/27 07:23:02;;;;;;;14.63;7.40;;;;;;;-0.88;84.93;96201.25;5088226;28;20199;-81
2023/01/27 07:25:30;;;;;;;11.10;7.17;;;;;;;-0.87;84.56;96202.94;5094949;28;20208;-81
2023/01/27 07:27:57;;;;;;;14.13;7.50;;;;;;;-0.87;84.83;96203.75;5083620;28;20201;-81
2023/01/27 07:30:26;;;;;;;12.97;6.93;;;;;;;-0.87;85.25;96187.84;5090814;28;20221;-81
2023/01/27 07:32:54;;;;;;;21.13;9.43;;;;;;;-0.91;86.72;96197.09;5086980;28;20197;-81
2023/01/27 07:35:23;;;;;;;15.13;8.20;;;;;;;-0.96;87.86;96188.84;5085178;28;20200;-81
2023/01/27 07:37:50;;;;;;;14.63;8.00;;;;;;;-0.92;87.96;96199.91;5081468;28;20213;-81
2023/01/27 07:40:18;;;;;;;14.50;7.37;;;;;;;-1.00;86.38;96182.19;5096060;28;20263;-80
2023/01/27 07:42:45;;;;;;;17.03;8.00;;;;;;;-0.91;86.01;96197.09;5078598;28;20208;-80
2023/01/27 07:45:12;;;;;;;15.23;7.73;;;;;;;-0.90;86.02;96193.47;5085461;28;20212;-81
2023/01/27 07:47:41;;;;;;;14.17;7.80;;;;;;;-0.97;86.39;96175.75;5087312;28;20212;-80
2023/01/27 07:50:10;;;;;;;23.17;13.00;;;;;;;-0.93;87.13;96180.53;5091096;28;20220;-80
2023/01/27 07:52:38;;;;;;;14.87;7.77;;;;;;;-0.84;85.86;96197.28;5090315;28;20197;-81
2023/01/27 07:55:06;;;;;;;15.23;7.93;;;;;;;-0.85;85.22;96193.78;5087390;28;20239;-81
2023/01/27 07:57:34;;;;;;;12.83;7.70;;;;;;;-0.78;85.42;96218.69;5084809;28;20199;-79
2023/01/27 08:00:01;;;;;;;15.50;8.10;;;;;;;-0.70;85.31;96227.63;5084278;28;20274;-80
2023/01/27 08:02:28;;;;;;;17.00;7.93;;;;;;;-0.77;85.17;96217.66;5083721;28;20212;-80
2023/01/27 08:04:56;;;;;;;14.27;7.60;;;;;;;-0.62;85.04;96238.25;5079624;28;20208;-80
2023/01/27 08:07:23;;;;;;;14.50;8.20;;;;;;;-0.56;85.95;96245.53;5087784;28;20500;-80
2023/01/27 08:09:53;;;;;;;19.10;8.30;;;;;;;-0.50;86.49;96248.38;5082717;28;20206;-80
2023/01/27 08:12:20;;;;;;;15.07;8.57;;;;;;;-0.41;86.04;96257.16;5066805;28;20201;-80
2023/01/27 08:14:47;;;;;;;15.63;7.73;;;;;;;-0.44;85.83;96253.03;5081256;28;20228;-80
2023/01/27 08:17:14;;;;;;;16.10;8.33;;;;;;;-0.45;85.31;96247.88;5078453;28;20201;-80
2023/01/27 08:19:41;;;;;;;14.53;8.13;;;;;;;-0.52;85.04;96244.25;5074862;28;20239;-80
2023/01/27 08:22:10;;;;;;;16.03;8.03;;;;;;;-0.44;84.83;96246.91;5085728;28;20233;-80
2023/01/27 08:24:37;;;;;;;14.27;7.97;;;;;;;-0.43;84.74;96256.53;5078664;28;20201;-80
2023/01/27 08:27:06;;;;;;;14.93;8.07;;;;;;;-0.38;85.28;96254.19;5080908;28;20201;-80
2023/01/27 08:29:33;;;;;;;17.70;8.30;;;;;;;-0.52;84.24;96238.94;5082292;28;20260;-80
2023/01/27 08:32:00;;;;;;;13.13;7.30;;;;;;;-0.51;84.16;96228.13;5084061;28;20249;-80
2023/01/27 08:34:27;;;;;;;14.13;8.00;;;;;;;-0.48;84.52;96248.22;5085126;28;20217;-80
2023/01/27 08:37:00;;;;;;;12.57;7.37;;;;;;;-0.55;85.30;96228.66;5084785;28;20193;-79
2023/01/27 08:39:29;;;;;;;11.87;7.13;;;;;;;-0.48;85.52;96254.34;5083607;28;20228;-76
2023/01/27 08:41:56;;;;;;;15.03;7.70;;;;;;;-0.38;86.06;96254.19;5078034;28;20208;-76
2023/01/27 08:44:24;;;;;;;15.03;7.40;;;;;;;-0.28;85.84;96268.13;5085958;28;20224;-76
2023/01/27 08:46:51;;;;;;;14.73;7.73;;;;;;;-0.24;84.79;96255.34;5083613;28;20205;-76
2023/01/27 08:49:18;;;;;;;15.87;8.00;;;;;;;-0.15;84.84;96257.00;5080266;28;20256;-77
2023/01/27 08:51:46;;;;;;;14.93;8.20;;;;;;;-0.16;84.16;96261.47;5083467;28;20248;-81
2023/01/27 08:54:13;;;;;;;15.37;7.97;;;;;;;-0.14;83.66;96262.16;5075293;28;20214;-82
2023/01/27 08:56:41;;;;;;;16.33;7.57;;;;;;;-0.08;84.35;96264.13;5081015;28;20204;-81
2023/01/27 08:59:08;;;;;;;15.33;8.03;;;;;;;-0.05;83.79;96261.16;5083736;28;20208;-81
2023/01/27 09:01:35;;;;;;;14.00;8.40;;;;;;;-0.08;83.50;96264.13;5086839;28;20206;-81
2023/01/27 09:04:02;;;;;;;14.30;8.13;;;;;;;-0.11;83.71;96261.81;5087901;28;20282;-83
2023/01/27 09:06:29;;;;;;;14.00;7.77;;;;;;;-0.09;83.73;96262.50;5082764;28;20197;-83
2023/01/27 09:09:08;;;;;;;12.60;7.20;;;;;;;-0.16;83.13;96252.69;5096055;28;20251;-82
2023/01/27 09:11:36;;;;;;;12.53;6.87;;;;;;;-0.21;84.12;96250.53;5081644;28;20200;-82
2023/01/27 09:14:05;;;;;;;14.20;7.73;;;;;;;-0.17;84.83;96249.19;5081854;28;20228;-82
2023/01/27 09:16:32;;;;;;;28.80;16.60;;;;;;;-0.18;84.19;96249.38;5083135;28;20239;-82
2023/01/27 09:18:59;;;;;;;15.27;9.03;;;;;;;-0.12;84.40;96252.22;5081857;28;20204;-82
2023/01/27 09:21:27;;;;;;;15.43;8.33;;;;;;;-0.10;82.55;96244.91;5084032;28;20227;-83
2023/01/27 09:23:54;;;;;;;69.37;47.10;;;;;;;-0.03;82.04;96229.97;5082095;28;20189;-82
2023/01/27 09:26:21;;;;;;;17.87;8.13;;;;;;;0.05;82.02;96238.91;5087689;28;20205;-82
2023/01/27 09:28:48;;;;;;;15.00;8.10;;;;;;;-0.05;81.59;96216.03;5084957;28;20197;-82
2023/01/27 09:31:17;;;;;;;15.27;8.23;;;;;;;0.17;81.17;96242.91;5076937;28;20209;-82
2023/01/27 09:33:44;;;;;;;12.57;7.67;;;;;;;0.20;81.42;96229.25;5077046;28;20271;-82
2023/01/27 09:36:14;;;;;;;15.13;8.10;;;;;;;0.24;80.29;96239.41;5085947;28;20209;-82
2023/01/27 09:38:47;;;;;;;13.40;7.50;;;;;;;0.25;81.02;96243.72;5086260;28;20197;-82
2023/01/27 09:41:40;;;;;;;16.67;8.10;;;;;;;0.25;80.92;96237.56;5084476;28;20231;-82
2023/01/27 09:44:33;;;;;;;15.53;7.70;;;;;;;0.38;81.15;96249.31;5090038;28;20230;-82
2023/01/27 09:47:28;;;;;;;17.40;7.87;;;;;;;0.40;81.11;96248.31;5086685;28;20209;-82
2023/01/27 09:50:15;;;;;;;16.07;7.63;;;;;;;0.39;80.37;96247.47;5064901;28;20211;-82
2023/01/27 09:53:13;;;;;;;12.80;7.40;;;;;;;0.42;80.36;96247.16;5085303;28;20196;-82
2023/01/27 09:55:46;;;;;;;17.33;8.13;;;;;;;0.39;80.30;96250.13;5076916;28;20244;-82
2023/01/27 09:58:27;;;;;;;12.60;7.43;;;;;;;0.46;80.71;96253.78;5084507;28;20207;-83
2023/01/27 10:01:08;;;;;;;12.30;6.73;;;;;;;0.59;80.80;96262.06;5087654;28;20209;-82
2023/01/27 10:03:52;;;;;;;15.73;8.40;;;;;;;0.69;80.40;96253.84;5084706;28;20249;-83
2023/01/27 10:06:42;;;;;;;14.47;7.93;;;;;;;0.77;80.93;96254.66;5080495;28;20216;-83
2023/01/27 10:09:39;;;;;;;13.83;8.03;;;;;;;0.87;80.15;96259.78;5092240;28;20285;-82
2023/01/27 10:12:16;;;;;;;14.50;8.30;;;;;;;1.14;91.39;96254.00;5083408;28;20213;-82
2023/01/27 10:14:56;;;;;;;15.13;8.37;;;;;;;1.12;83.15;96260.50;5084276;28;20226;-82
2023/01/27 10:17:38;;;;;;;14.27;8.43;;;;;;;1.09;80.83;96260.84;5089244;28;20271;-82
2023/01/27 10:20:18;;;;;;;13.77;8.20;;;;;;;1.07;80.77;96265.50;5072449;28;20266;-82
2023/01/27 10:22:56;;;;;;;15.57;8.80;;;;;;;0.99;80.11;96262.91;5082430;28;20295;-82
2023/01/27 10:25:35;;;;;;;14.23;7.90;;;;;;;0.98;80.69;96262.06;5078888;28;20221;-83
2023/01/27 10:28:11;;;;;;;12.87;7.23;;;;;;;0.99;81.29;96246.94;5074848;28;20211;-82
2023/01/27 10:30:45;;;;;;;15.90;8.70;;;;;;;0.98;81.15;96248.78;5078212;28;20243;-82
2023/01/27 10:33:17;;;;;;;12.97;8.50;;;;;;;0.97;81.65;96251.59;5082517;28;20260;-82
2023/01/27 10:35:52;;;;;;;14.93;8.57;;;;;;;0.94;82.81;96231.50;5086530;28;20317;-82
2023/01/27 10:38:35;;;;;;;15.27;8.90;;;;;;;1.02;83.61;96235.97;5077985;28;20202;-83
2023/01/27 10:41:12;;;;;;;18.33;9.43;;;;;;;1.07;82.82;96236.25;5077565;28;20215;-83
2023/01/27 10:43:55;;;;;;;18.57;9.10;;;;;;;1.17;87.15;96244.03;5089707;28;20203;-83
2023/01/27 10:46:31;;;;;;;17.30;9.47;;;;;;;1.62;89.02;96248.56;5086850;28;20208;-83
2023/01/27 10:49:04;;;;;;;15.60;9.20;;;;;;;1.74;85.81;96241.81;5090732;28;20260;-82
2023/01/27 10:51:37;;;;;;;18.43;9.77;;;;;;;1.76;81.96;96239.81;5089197;28;20208;-83
2023/01/27 10:54:12;;;;;;;18.57;9.90;;;;;;;1.62;81.36;96237.91;5090779;28;20261;-83
2023/01/27 10:56:43;;;;;;;17.50;10.70;;;;;;;1.50;80.89;96240.16;5080803;28;20197;-83
2023/01/27 10:59:20;;;;;;;22.90;10.43;;;;;;;1.39;81.35;96233.41;5099835;28;20205;-83
2023/01/27 11:01:53;;;;;;;23.03;12.83;;;;;;;1.34;81.60;96226.97;5086946;28;20201;-83
2023/01/27 11:04:33;;;;;;;15.87;9.53;;;;;;;1.27;80.99;96231.34;5090673;28;20208;-83
2023/01/27 11:07:02;;;;;;;14.97;8.73;;;;;;;1.13;81.45;96230.25;5089112;28;20200;-83
2023/01/27 11:09:32;;;;;;;17.30;9.83;;;;;;;1.12;81.56;96225.91;5089791;28;20198;-83
2023/01/27 11:12:05;;;;;;;14.30;8.67;;;;;;;1.15;82.18;96225.59;5089942;28;20215;-83
2023/01/27 11:14:41;;;;;;;14.20;9.23;;;;;;;1.21;81.30;96224.03;5078437;28;20252;-83
2023/01/27 11:17:16;;;;;;;16.00;8.93;;;;;;;1.22;81.87;96225.72;5077294;28;20211;-83
2023/01/27 11:19:52;;;;;;;13.70;8.63;;;;;;;1.18;80.72;96216.44;5087896;28;20195;-83
2023/01/27 11:22:27;;;;;;;17.77;8.97;;;;;;;1.19;81.09;96218.94;5089188;28;20252;-83
2023/01/27 11:25:04;;;;;;;16.33;8.73;;;;;;;1.20;81.56;96223.22;5087304;28;20223;-83
2023/01/27 11:27:54;;;;;;;19.47;9.67;;;;;;;1.11;81.23;96217.13;5077185;28;20220;-83
2023/01/27 11:30:27;;;;;;;19.47;9.67;;;;;;;1.00;81.12;96203.41;5080754;28;20229;-83
2023/01/27 11:33:07;;;;;;;15.80;9.53;;;;;;;1.03;81.49;96213.66;5082697;28;20192;-83
2023/01/27 11:35:34;;;;;;;18.27;9.50;;;;;;;1.17;81.42;96228.91;5079308;28;20274;-83
2023/01/27 11:38:03;;;;;;;17.53;9.30;;;;;;;1.12;81.74;96232.06;5087803;28;20197;-83
2023/01/27 11:40:32;;;;;;;15.60;8.67;;;;;;;1.06;81.95;96219.47;5078498;28;20211;-83
2023/01/27 11:43:01;;;;;;;16.43;9.00;;;;;;;1.12;82.19;96228.59;5087406;28;20279;-83
2023/01/27 11:45:33;;;;;;;16.00;8.87;;;;;;;1.09;81.64;96218.31;5090894;28;20208;-84
2023/01/27 11:48:03;;;;;;;18.13;9.73;;;;;;;1.09;82.19;96223.63;5079190;28;20203;-83
2023/01/27 11:50:33;;;;;;;16.20;8.80;;;;;;;1.06;81.99;96223.97;5093292;28;20227;-84
2023/01/27 11:53:14;;;;;;;15.40;8.67;;;;;;;1.11;82.24;96226.91;5086570;28;20219;-83
2023/01/27 11:55:45;;;;;;;16.57;9.23;;;;;;;1.12;82.55;96220.59;5072803;28;20220;-84
2023/01/27 11:58:19;;;;;;;15.60;9.47;;;;;;;1.22;82.00;96231.84;5088482;28;20205;-84
2023/01/27 12:00:49;;;;;;;16.70;9.57;;;;;;;1.22;82.21;96221.22;5087917;28;20207;-83
2023/01/27 12:03:20;;;;;;;17.63;9.27;;;;;;;1.20;82.04;96233.03;5087909;28;20208;-84
2023/01/27 12:05:53;;;;;;;14.33;9.40;;;;;;;1.18;81.47;96224.41;5073896;28;20200;-83
2023/01/27 12:08:38;;;;;;;15.87;9.37;;;;;;;1.21;81.51;96238.16;5090366;28;20208;-84